createdAt,value
2022-09-07T00:00:11.293Z,17.57
2022-09-07T00:04:24.544Z,17.53
2022-09-07T00:08:31.651Z,17.53
2022-09-07T00:12:48.208Z,17.52
2022-09-07T00:16:51.752Z,17.59
2022-09-07T00:21:00.116Z,17.55
2022-09-07T00:25:04.001Z,17.56
2022-09-07T00:29:11.802Z,17.46
2022-09-07T00:33:18.723Z,17.58
2022-09-07T00:37:22.281Z,17.66
2022-09-07T00:41:38.800Z,17.65
2022-09-07T00:45:48.006Z,17.64
2022-09-07T00:49:56.397Z,17.58
2022-09-07T00:54:06.410Z,17.69
2022-09-07T00:58:51.189Z,17.70
2022-09-07T01:03:00.764Z,17.66
2022-09-07T01:07:07.654Z,17.60
2022-09-07T01:11:17.878Z,17.58
2022-09-07T01:15:23.768Z,17.62
2022-09-07T01:19:54.969Z,17.63
2022-09-07T01:24:42.061Z,17.57
2022-09-07T01:28:53.812Z,17.55
2022-09-07T01:33:15.273Z,17.53
2022-09-07T01:37:36.938Z,17.49
2022-09-07T01:41:50.912Z,17.49
2022-09-07T01:46:22.891Z,17.50
2022-09-07T01:50:35.698Z,17.51
2022-09-07T01:54:47.539Z,17.48
2022-09-07T01:58:58.191Z,17.50
2022-09-07T02:03:10.985Z,17.47
2022-09-07T02:07:18.835Z,17.45
2022-09-07T02:11:31.823Z,17.43
2022-09-07T02:16:33.114Z,17.39
2022-09-07T02:20:40.685Z,17.36
2022-09-07T02:24:48.867Z,17.27
2022-09-07T02:28:54.247Z,17.24
2022-09-07T02:33:11.407Z,17.19
2022-09-07T02:37:17.835Z,17.14
2022-09-07T02:41:32.989Z,17.11
2022-09-07T02:46:18.758Z,17.09
2022-09-07T02:50:46.700Z,17.04
2022-09-07T02:55:07.384Z,16.98
2022-09-07T02:59:25.180Z,16.93
2022-09-07T03:03:45.418Z,16.88
2022-09-07T03:08:12.923Z,16.88
2022-09-07T03:12:25.280Z,16.84
2022-09-07T03:16:29.040Z,16.83
2022-09-07T03:20:50.218Z,16.81
2022-09-07T03:25:15.881Z,16.79
2022-09-07T03:29:25.804Z,16.76
2022-09-07T03:33:29.455Z,16.78
2022-09-07T03:37:33.590Z,16.78
2022-09-07T03:41:47.915Z,16.80
2022-09-07T03:45:58.196Z,16.75
2022-09-07T03:50:02.280Z,16.70
2022-09-07T03:54:05.812Z,16.66
2022-09-07T03:58:09.479Z,16.63
2022-09-07T04:02:29.334Z,16.64
2022-09-07T04:06:34.775Z,16.61
2022-09-07T04:10:39.546Z,16.63
2022-09-07T04:14:45.122Z,16.58
2022-09-07T04:18:55.037Z,16.61
2022-09-07T04:22:58.443Z,16.65
2022-09-07T04:27:09.178Z,16.69
2022-09-07T04:31:13.330Z,16.60
2022-09-07T04:35:19.027Z,16.57
2022-09-07T04:39:23.086Z,16.51
2022-09-07T04:43:26.713Z,16.48
2022-09-07T04:47:30.802Z,16.54
2022-09-07T04:51:36.704Z,16.59
2022-09-07T04:55:39.986Z,16.52
2022-09-07T04:59:43.421Z,16.52
2022-09-07T05:03:47.325Z,16.52
2022-09-07T05:08:41.858Z,16.55
2022-09-07T05:12:45.562Z,16.55
2022-09-07T05:16:51.600Z,16.58
2022-09-07T05:21:22.214Z,16.58
2022-09-07T05:25:31.660Z,16.66
2022-09-07T05:38:25.927Z,16.70
2022-09-07T05:42:33.769Z,16.71
2022-09-07T05:46:37.082Z,16.82
2022-09-07T05:50:41.033Z,16.79
2022-09-07T05:54:44.218Z,16.84
2022-09-07T05:58:50.877Z,16.95
2022-09-07T06:02:54.018Z,17.04
2022-09-07T06:11:25.586Z,17.33
2022-09-07T06:15:30.036Z,17.50
2022-09-07T06:19:33.320Z,17.69
2022-09-07T06:23:41.496Z,17.77
2022-09-07T06:27:44.685Z,17.80
2022-09-07T06:36:20.322Z,17.86
2022-09-07T06:40:23.954Z,18.08
2022-09-07T06:44:27.048Z,18.00
2022-09-07T06:48:31.928Z,18.00
2022-09-07T06:57:09.437Z,17.72
2022-09-07T07:01:23.992Z,17.69
2022-09-07T07:05:28.461Z,17.66
2022-09-07T07:09:31.613Z,17.49
2022-09-07T07:13:35.299Z,17.43
2022-09-07T07:17:38.391Z,17.42
2022-09-07T07:22:10.397Z,17.35
2022-09-07T07:26:07.997Z,17.35
2022-09-07T07:30:11.991Z,17.38
2022-09-07T07:34:16.099Z,17.37
2022-09-07T07:42:44.069Z,17.54
2022-09-07T07:46:51.437Z,17.66
2022-09-07T07:51:06.442Z,17.80
2022-09-07T07:59:37.494Z,18.30
2022-09-07T08:03:43.815Z,18.61
2022-09-07T08:12:29.103Z,18.70
2022-09-07T08:16:34.210Z,18.92
2022-09-07T08:20:40.831Z,19.35
2022-09-07T08:24:43.885Z,19.32
2022-09-07T08:28:48.559Z,19.54
2022-09-07T08:32:51.836Z,19.55
2022-09-07T08:37:01.077Z,19.64
2022-09-07T08:41:24.241Z,19.42
2022-09-07T08:45:33.296Z,19.94
2022-09-07T08:49:51.525Z,20.78
2022-09-07T08:53:55.019Z,22.60
2022-09-07T08:58:06.401Z,22.91
2022-09-07T09:02:35.172Z,23.63
2022-09-07T09:06:46.885Z,23.20
2022-09-07T09:11:01.764Z,22.17
2022-09-07T09:15:16.450Z,23.09
2022-09-07T09:19:53.843Z,22.81
2022-09-07T09:24:03.553Z,22.66
2022-09-07T09:28:13.316Z,22.91
2022-09-07T09:32:34.657Z,23.65
2022-09-07T09:36:48.194Z,22.97
2022-09-07T09:41:17.052Z,22.14
2022-09-07T09:50:03.589Z,22.12
2022-09-07T09:54:22.776Z,22.98
2022-09-07T10:07:55.570Z,21.91
2022-09-07T10:12:05.537Z,22.23
2022-09-07T10:16:16.266Z,22.99
2022-09-07T10:20:35.034Z,23.48
2022-09-07T10:24:46.618Z,23.43
2022-09-07T10:29:09.277Z,23.97
2022-09-07T10:33:28.757Z,23.94
2022-09-07T10:37:46.711Z,24.91
2022-09-07T10:42:13.367Z,25.90
2022-09-07T10:51:05.066Z,25.69
2022-09-07T10:55:17.452Z,25.40
2022-09-07T11:04:31.472Z,25.17
2022-09-07T11:14:12.417Z,24.21
2022-09-07T11:18:25.114Z,24.66
2022-09-07T11:23:00.798Z,26.62
2022-09-07T11:27:26.784Z,26.88
2022-09-07T11:31:46.720Z,26.52
2022-09-07T11:36:01.384Z,26.79
2022-09-07T11:40:37.262Z,27.10
2022-09-07T11:45:00.331Z,26.17
2022-09-07T11:49:26.535Z,26.09
2022-09-07T11:53:37.559Z,26.11
2022-09-07T11:57:59.811Z,25.36
2022-09-07T12:02:48.670Z,25.10
2022-09-07T12:07:24.222Z,26.01
2022-09-07T12:12:20.386Z,25.83
2022-09-07T12:17:07.550Z,26.01
2022-09-07T12:27:04.640Z,26.12
2022-09-07T12:31:16.912Z,26.45
2022-09-07T12:35:44.986Z,26.96
2022-09-07T12:39:55.241Z,27.26
2022-09-07T12:44:18.857Z,27.35
2022-09-07T12:49:04.573Z,27.24
2022-09-07T12:53:31.768Z,28.28
2022-09-07T12:57:45.214Z,28.26
2022-09-07T13:01:58.724Z,28.30
2022-09-07T13:07:01.638Z,27.75
2022-09-07T13:10:56.301Z,27.01
2022-09-07T13:15:24.037Z,27.68
2022-09-07T13:20:10.470Z,27.01
2022-09-07T13:24:59.870Z,28.24
2022-09-07T13:29:28.153Z,27.57
2022-09-07T13:33:53.322Z,27.76
2022-09-07T13:38:04.052Z,26.84
2022-09-07T13:42:40.334Z,27.66
2022-09-07T13:47:12.092Z,29.02
2022-09-07T13:51:43.142Z,27.57
2022-09-07T13:56:10.538Z,27.04
2022-09-07T14:01:52.145Z,27.34
2022-09-07T15:43:25.705Z,28.77
2022-09-07T15:47:48.175Z,27.96
2022-09-07T15:52:06.823Z,28.39
2022-09-07T15:56:12.411Z,27.47
2022-09-07T16:00:17.943Z,26.63
2022-09-07T16:09:06.194Z,28.46
2022-09-07T16:14:02.360Z,28.00
2022-09-07T16:18:18.003Z,27.55
2022-09-07T16:27:11.211Z,25.45
2022-09-07T16:31:21.188Z,25.13
2022-09-07T16:35:55.780Z,24.99
2022-09-07T16:39:59.625Z,24.74
2022-09-07T16:44:04.038Z,24.66
2022-09-07T16:48:07.830Z,24.61
2022-09-07T16:52:15.035Z,24.61
2022-09-07T16:56:30.836Z,24.60
2022-09-07T17:00:34.755Z,25.79
2022-09-07T17:04:51.077Z,25.59
2022-09-07T17:09:19.569Z,24.84
2022-09-07T17:13:54.599Z,25.12
2022-09-07T17:17:58.682Z,25.97
2022-09-07T17:22:02.577Z,26.11
2022-09-07T17:26:31.391Z,25.85
2022-09-07T17:30:40.570Z,25.95
2022-09-07T17:34:44.639Z,24.56
2022-09-07T17:47:37.470Z,23.10
2022-09-07T17:51:41.576Z,22.86
2022-09-07T17:56:03.814Z,22.55
2022-09-07T18:00:12.692Z,22.24
2022-09-07T18:04:17.363Z,22.00
2022-09-07T18:08:49.586Z,21.89
2022-09-07T18:13:18.199Z,21.57
2022-09-07T18:18:09.512Z,21.24
2022-09-07T18:22:11.252Z,21.04
2022-09-07T18:26:16.475Z,20.80
2022-09-07T18:30:20.513Z,20.59
2022-09-07T18:34:25.858Z,20.40
2022-09-07T18:38:44.017Z,20.23
2022-09-07T18:43:08.119Z,20.06
2022-09-07T18:47:20.787Z,19.95
2022-09-07T18:56:16.096Z,20.06
2022-09-07T19:00:20.084Z,19.90
2022-09-07T19:09:22.804Z,19.39
2022-09-07T19:13:41.480Z,19.27
2022-09-07T19:17:49.408Z,19.10
2022-09-07T19:21:53.137Z,19.04
2022-09-07T19:30:25.022Z,19.01
2022-09-07T19:34:28.736Z,18.90
2022-09-07T19:38:32.677Z,18.59
2022-09-07T19:42:37.490Z,18.49
2022-09-07T19:46:47.208Z,18.29
2022-09-07T19:50:51.782Z,18.48
2022-09-07T19:54:57.224Z,18.43
2022-09-07T19:59:05.641Z,18.29
2022-09-07T20:03:10.679Z,18.25
2022-09-07T20:07:39.772Z,18.12
2022-09-07T20:12:55.959Z,17.94
2022-09-07T20:16:59.719Z,17.74
2022-09-07T20:21:04.918Z,17.82
2022-09-07T20:25:13.116Z,17.79
2022-09-07T20:29:27.343Z,17.72
2022-09-07T20:33:35.920Z,17.64
2022-09-07T20:37:39.490Z,17.67
2022-09-07T20:41:42.984Z,17.67
2022-09-07T20:45:46.480Z,17.70
2022-09-07T20:50:00.590Z,17.61
2022-09-07T20:54:03.876Z,17.59
2022-09-07T20:58:06.990Z,17.56
2022-09-07T21:02:21.546Z,17.39
2022-09-07T21:06:38.522Z,17.33
2022-09-07T21:10:42.317Z,17.30
2022-09-07T21:14:46.493Z,17.34
2022-09-07T21:18:58.815Z,17.39
2022-09-07T21:23:30.455Z,17.40
2022-09-07T21:27:52.475Z,17.27
2022-09-07T21:32:34.954Z,17.25
2022-09-07T21:36:42.125Z,17.31
2022-09-07T21:41:02.786Z,17.31
2022-09-07T21:45:10.499Z,17.38
2022-09-07T21:49:13.807Z,17.45
2022-09-07T21:53:17.491Z,17.43
2022-09-07T21:57:26.282Z,17.40
2022-09-07T22:01:30.982Z,17.50
2022-09-07T22:06:05.268Z,17.50
2022-09-07T22:10:30.082Z,17.61
2022-09-07T22:14:36.843Z,17.73
2022-09-07T22:18:43.927Z,17.84
2022-09-07T22:22:47.566Z,17.88
2022-09-07T22:26:54.389Z,17.89
2022-09-07T22:31:19.200Z,17.83
2022-09-07T22:35:30.775Z,17.95
2022-09-07T22:39:34.173Z,18.10
2022-09-07T22:43:37.786Z,18.15
2022-09-07T22:47:43.440Z,18.23
2022-09-07T22:52:15.113Z,18.12
2022-09-07T22:56:39.650Z,18.05
2022-09-07T23:01:03.589Z,18.07
2022-09-07T23:05:20.830Z,17.83
2022-09-07T23:09:24.545Z,17.92
2022-09-07T23:13:43.590Z,17.88
2022-09-07T23:18:36.584Z,17.75
2022-09-07T23:22:44.744Z,17.75
2022-09-07T23:26:59.081Z,17.59
2022-09-07T23:31:06.798Z,17.48
2022-09-07T23:35:24.364Z,17.66
2022-09-07T23:39:28.801Z,17.64
2022-09-07T23:43:32.144Z,17.46
2022-09-07T23:47:35.910Z,17.33
2022-09-07T23:52:10.231Z,17.20
2022-09-07T23:56:17.118Z,17.19
